Terminal Aerodrome Forecast
Issued by NWS

Home | Current Version | Previous Version | Text Only | Print | Product List | Glossary On
Versions: 1 2 3 4 5 6 7 8 9 10 11 12 13 14 15 16 17 18 19 20 21 22 23 24 25
000
FTUS43 KDMX 040539
TAFOTM
TAF
KOTM 040539Z 0406/0506 27011KT P6SM BKN090
     FM040700 34012KT P6SM SKC
     FM041600 35016G23KT P6SM SCT060
     FM050100 32006KT P6SM SKC=

USA.gov is the U.S. government's official web portal to all federal, state and local government web resources and services.